createdAt,value
2018-10-21T00:02:13.112Z,97874.21
2018-10-21T00:04:43.490Z,97867.02
2018-10-21T00:07:13.966Z,97865.56
2018-10-21T00:09:44.408Z,97866.75
2018-10-21T00:12:14.875Z,97865.45
2018-10-21T00:14:45.377Z,97864.73
2018-10-21T00:17:16.662Z,97866.63
2018-10-21T00:19:47.072Z,97860.23
2018-10-21T00:22:17.852Z,97856.81
2018-10-21T00:24:48.333Z,97864.91
2018-10-21T00:27:18.917Z,97853.81
2018-10-21T00:29:49.411Z,97854.67
2018-10-21T00:32:19.880Z,97855.37
2018-10-21T00:34:50.404Z,97858.55
2018-10-21T00:37:20.789Z,97846.78
2018-10-21T00:39:51.353Z,97849.47
2018-10-21T00:42:22.046Z,97851.69
2018-10-21T00:44:52.493Z,97848.64
2018-10-21T00:47:23.562Z,97846.25
2018-10-21T00:49:54.142Z,97838.18
2018-10-21T00:52:24.629Z,97842.65
2018-10-21T00:54:55.229Z,97834.98
2018-10-21T00:57:25.774Z,97837.00
2018-10-21T00:59:56.280Z,97837.78
2018-10-21T01:02:28.524Z,97832.84
2018-10-21T01:04:59.100Z,97833.31
2018-10-21T01:07:29.611Z,97834.18
2018-10-21T01:10:00.113Z,97828.67
2018-10-21T01:12:30.623Z,97835.09
2018-10-21T01:15:03.215Z,97830.41
2018-10-21T01:17:33.767Z,97831.58
2018-10-21T01:20:06.292Z,97827.23
2018-10-21T01:22:37.894Z,97832.80
2018-10-21T01:25:10.071Z,97836.11
2018-10-21T01:27:42.249Z,97834.61
2018-10-21T01:30:13.745Z,97833.83
2018-10-21T01:32:44.240Z,97832.38
2018-10-21T01:35:14.766Z,97828.78
2018-10-21T01:37:45.285Z,97817.02
2018-10-21T01:40:37.837Z,97816.98
2018-10-21T01:43:09.838Z,97817.74
2018-10-21T01:45:40.270Z,97822.55
2018-10-21T01:48:13.316Z,97814.13
2018-10-21T01:50:43.826Z,97814.39
2018-10-21T01:53:15.209Z,97817.29
2018-10-21T01:55:45.699Z,97811.77
2018-10-21T01:58:16.249Z,97812.11
2018-10-21T02:00:47.406Z,97810.02
2018-10-21T02:03:18.024Z,97818.51
2018-10-21T02:05:48.898Z,97819.45
2018-10-21T02:08:19.419Z,97814.05
2018-10-21T02:10:49.835Z,97814.05
2018-10-21T02:13:20.337Z,97818.36
2018-10-21T02:15:50.804Z,97821.98
2018-10-21T02:18:22.598Z,97821.67
2018-10-21T02:20:53.089Z,97821.41
2018-10-21T02:23:24.745Z,97821.78
2018-10-21T02:25:56.734Z,97826.53
2018-10-21T02:28:30.361Z,97830.02
2018-10-21T02:31:02.394Z,97832.28
2018-10-21T02:33:32.936Z,97834.20
2018-10-21T02:36:03.392Z,97846.42
2018-10-21T02:38:33.919Z,97837.97
2018-10-21T02:41:41.897Z,97841.70
2018-10-21T02:44:19.997Z,97844.28
2018-10-21T02:46:52.304Z,97843.94
2018-10-21T02:49:23.266Z,97849.88
2018-10-21T02:51:58.749Z,97848.77
2018-10-21T02:54:30.537Z,97844.34
2018-10-21T02:57:01.137Z,97846.02
2018-10-21T02:59:31.659Z,97858.63
2018-10-21T03:02:03.829Z,97861.45
2018-10-21T03:04:34.590Z,97864.12
2018-10-21T03:07:05.829Z,97862.69
2018-10-21T03:09:37.650Z,97855.30
2018-10-21T03:12:08.198Z,97858.95
2018-10-21T03:14:38.664Z,97862.95
2018-10-21T03:17:09.140Z,97861.14
2018-10-21T03:19:39.561Z,97863.34
2018-10-21T03:22:10.176Z,97868.66
2018-10-21T03:24:41.993Z,97864.28
2018-10-21T03:27:14.991Z,97859.94
2018-10-21T03:29:45.436Z,97862.83
2018-10-21T03:32:15.940Z,97851.90
2018-10-21T03:34:46.444Z,97860.74
2018-10-21T03:37:17.081Z,97855.75
2018-10-21T03:39:47.614Z,97861.50
2018-10-21T03:42:18.208Z,97851.03
2018-10-21T03:44:49.505Z,97856.86
2018-10-21T03:47:20.666Z,97850.69
2018-10-21T03:49:52.664Z,97847.41
2018-10-21T03:52:23.215Z,97847.41
2018-10-21T03:54:53.666Z,97844.06
2018-10-21T03:57:24.664Z,97842.39
2018-10-21T03:59:55.306Z,97846.98
2018-10-21T04:02:25.802Z,97849.63
2018-10-21T04:04:56.336Z,97846.88
2018-10-21T04:07:26.817Z,97849.84
2018-10-21T04:09:57.924Z,97848.44
2018-10-21T04:12:28.545Z,97844.69
2018-10-21T04:14:59.032Z,97851.44
2018-10-21T04:17:29.615Z,97840.05
2018-10-21T04:20:00.161Z,97840.81
2018-10-21T04:22:30.967Z,97848.50
2018-10-21T04:25:01.556Z,97842.18
2018-10-21T04:27:32.079Z,97847.28
2018-10-21T04:30:02.659Z,97843.56
2018-10-21T04:32:34.893Z,97843.56
2018-10-21T04:35:06.473Z,97839.78
2018-10-21T04:37:47.521Z,97838.03
2018-10-21T04:40:19.495Z,97839.70
2018-10-21T04:42:50.353Z,97840.45
2018-10-21T04:45:23.345Z,97837.98
2018-10-21T04:47:53.829Z,97834.17
2018-10-21T04:50:24.351Z,97842.89
2018-10-21T04:52:56.553Z,97843.42
2018-10-21T04:58:08.861Z,97847.28
2018-10-21T05:00:39.419Z,97848.28
2018-10-21T05:03:09.966Z,97852.84
2018-10-21T05:05:41.841Z,97850.25
2018-10-21T05:08:12.411Z,97852.27
2018-10-21T05:10:42.809Z,97857.67
2018-10-21T05:13:14.047Z,97857.00
2018-10-21T05:15:44.643Z,97856.32
2018-10-21T05:18:15.222Z,97869.67
2018-10-21T05:20:45.660Z,97865.59
2018-10-21T05:23:16.157Z,97866.52
2018-10-21T05:25:46.625Z,97862.52
2018-10-21T05:28:17.214Z,97869.11
2018-10-21T05:30:48.401Z,97872.44
2018-10-21T05:33:18.915Z,97874.13
2018-10-21T05:35:49.836Z,97888.80
2018-10-21T05:38:20.846Z,97878.22
2018-10-21T05:40:51.432Z,97880.25
2018-10-21T05:43:21.794Z,97883.70
2018-10-21T05:45:52.265Z,97883.54
2018-10-21T05:48:22.694Z,97887.95
2018-10-21T05:50:53.273Z,97890.84
2018-10-21T05:53:23.732Z,97891.86
2018-10-21T05:55:54.363Z,97894.28
2018-10-21T05:58:24.869Z,97891.47
2018-10-21T06:00:55.345Z,97895.28
2018-10-21T06:03:26.767Z,97894.66
2018-10-21T06:05:57.220Z,97895.59
2018-10-21T06:08:28.324Z,97903.08
2018-10-21T06:10:58.948Z,97905.13
2018-10-21T06:13:29.411Z,97904.72
2018-10-21T06:16:00.190Z,97905.96
2018-10-21T06:18:31.357Z,97902.72
2018-10-21T06:21:04.497Z,97903.38
2018-10-21T06:23:36.702Z,97899.27
2018-10-21T06:26:07.913Z,97909.14
2018-10-21T06:28:39.427Z,97908.01
2018-10-21T06:31:10.121Z,97918.19
2018-10-21T06:33:40.729Z,97911.30
2018-10-21T06:36:11.380Z,97918.77
2018-10-21T06:38:41.800Z,97916.53
2018-10-21T06:41:12.300Z,97920.65
2018-10-21T06:43:43.525Z,97919.66
2018-10-21T06:46:15.100Z,97919.09
2018-10-21T06:48:45.918Z,97907.96
2018-10-21T06:51:16.501Z,97920.61
2018-10-21T06:53:46.913Z,97915.05
2018-10-21T06:56:17.515Z,97919.61
2018-10-21T06:58:48.008Z,97921.67
2018-10-21T07:01:18.653Z,97915.26
2018-10-21T07:03:49.068Z,97924.25
2018-10-21T07:06:20.760Z,97922.13
2018-10-21T07:08:52.303Z,97925.67
2018-10-21T07:11:22.847Z,97932.91
2018-10-21T07:13:53.284Z,97929.83
2018-10-21T07:16:24.480Z,97939.05
2018-10-21T07:18:55.076Z,97931.97
2018-10-21T07:21:26.436Z,97929.57
2018-10-21T07:23:56.916Z,97929.16
2018-10-21T07:26:28.698Z,97926.16
2018-10-21T07:28:59.177Z,97934.02
2018-10-21T07:31:29.603Z,97930.80
2018-10-21T07:34:00.096Z,97926.57
2018-10-21T07:36:32.572Z,97936.64
2018-10-21T07:39:03.159Z,97927.48
2018-10-21T07:41:36.153Z,97930.72
2018-10-21T07:44:07.256Z,97924.54
2018-10-21T07:46:37.679Z,97929.42
2018-10-21T07:49:09.030Z,97931.63
2018-10-21T07:51:39.541Z,97931.97
2018-10-21T07:54:09.968Z,97926.36
2018-10-21T07:56:40.871Z,97925.98
2018-10-21T07:59:12.963Z,97922.67
2018-10-21T08:01:43.475Z,97928.63
2018-10-21T08:04:13.950Z,97926.17
2018-10-21T08:06:55.017Z,97934.84
2018-10-21T08:09:25.544Z,97930.69
2018-10-21T08:11:55.953Z,97937.56
2018-10-21T08:14:26.415Z,97937.11
2018-10-21T08:16:57.099Z,97935.80
2018-10-21T08:19:27.506Z,97939.70
2018-10-21T08:21:58.472Z,97941.78
2018-10-21T08:24:29.686Z,97937.05
2018-10-21T08:27:00.564Z,97936.48
2018-10-21T08:29:31.025Z,97941.84
2018-10-21T08:32:01.616Z,97938.39
2018-10-21T08:34:32.126Z,97943.27
2018-10-21T08:37:04.393Z,97943.37
2018-10-21T08:39:34.817Z,97943.27
2018-10-21T08:42:05.290Z,97942.50
2018-10-21T08:44:35.719Z,97941.52
2018-10-21T08:47:06.624Z,97944.37
2018-10-21T08:49:37.086Z,97941.77
2018-10-21T08:52:07.790Z,97947.94
2018-10-21T08:54:38.200Z,97957.19
2018-10-21T08:57:08.880Z,97949.50
2018-10-21T08:59:42.060Z,97957.80
2018-10-21T09:02:12.591Z,97948.09
2018-10-21T09:04:43.619Z,97958.23
2018-10-21T09:07:14.225Z,97954.50
2018-10-21T09:09:44.550Z,97958.02
2018-10-21T09:12:15.295Z,97965.29
2018-10-21T09:14:46.233Z,97965.90
2018-10-21T09:17:16.757Z,97960.58
2018-10-21T09:19:47.267Z,97962.93
2018-10-21T09:22:18.764Z,97963.48
2018-10-21T09:24:49.353Z,97960.35
2018-10-21T09:27:19.746Z,97958.56
2018-10-21T09:29:50.406Z,97957.02
2018-10-21T09:32:20.917Z,97955.55
2018-10-21T09:34:51.716Z,97954.47
2018-10-21T09:37:22.560Z,97960.71
2018-10-21T09:39:53.129Z,97953.95
2018-10-21T09:42:24.341Z,97952.55
2018-10-21T09:44:54.927Z,97954.64
2018-10-21T09:47:25.365Z,97953.84
2018-10-21T09:49:59.542Z,97949.54
2018-10-21T09:52:29.945Z,97945.68
2018-10-21T09:55:00.443Z,97943.42
2018-10-21T09:57:31.109Z,97952.53
2018-10-21T10:00:02.022Z,97952.80
2018-10-21T10:02:37.269Z,97940.22
2018-10-21T10:05:08.135Z,97951.89
2018-10-21T10:07:39.510Z,97946.05
2018-10-21T10:10:11.673Z,97951.55
2018-10-21T10:12:43.778Z,97957.38
2018-10-21T10:15:14.789Z,97951.97
2018-10-21T10:17:45.485Z,97953.64
2018-10-21T10:20:15.962Z,97948.04
2018-10-21T10:22:46.600Z,97949.23
2018-10-21T10:25:17.052Z,97945.97
2018-10-21T10:27:48.685Z,97941.33
2018-10-21T10:30:19.205Z,97952.66
2018-10-21T10:32:49.689Z,97947.48
2018-10-21T10:35:20.158Z,97950.13
2018-10-21T10:37:52.944Z,97950.06
2018-10-21T10:40:23.445Z,97947.05
2018-10-21T10:42:55.182Z,97946.09
2018-10-21T10:45:25.679Z,97950.77
2018-10-21T10:47:56.201Z,97953.53
2018-10-21T10:50:26.738Z,97947.95
2018-10-21T10:52:58.301Z,97955.45
2018-10-21T10:55:33.779Z,97950.64
2018-10-21T10:58:04.922Z,97947.98
2018-10-21T11:00:38.021Z,97958.94
2018-10-21T11:03:08.645Z,97946.33
2018-10-21T11:05:39.209Z,97955.92
2018-10-21T11:08:11.991Z,97952.53
2018-10-21T11:10:42.547Z,97948.00
2018-10-21T11:13:13.036Z,97947.95
2018-10-21T11:15:43.564Z,97946.33
2018-10-21T11:18:14.396Z,97948.31
2018-10-21T11:20:45.026Z,97956.19
2018-10-21T11:23:15.589Z,97944.41
2018-10-21T11:25:51.294Z,97941.59
2018-10-21T11:28:22.419Z,97939.31
2018-10-21T11:30:55.278Z,97935.48
2018-10-21T11:33:26.492Z,97939.14
2018-10-21T11:35:57.281Z,97935.49
2018-10-21T11:38:28.664Z,97946.45
2018-10-21T11:40:59.376Z,97943.11
2018-10-21T11:43:29.767Z,97943.29
2018-10-21T11:46:00.436Z,97949.23
2018-10-21T11:48:32.387Z,97947.83
2018-10-21T11:51:02.771Z,97947.31
2018-10-21T11:53:33.343Z,97948.45
2018-10-21T11:56:03.833Z,97946.36
2018-10-21T11:58:35.927Z,97954.86
2018-10-21T12:01:06.424Z,97948.05
2018-10-21T12:03:37.054Z,97951.81
2018-10-21T12:06:07.961Z,97954.75
2018-10-21T12:08:38.497Z,97945.22
2018-10-21T12:11:09.106Z,97951.55
2018-10-21T12:13:42.997Z,97954.70
2018-10-21T12:16:13.553Z,97960.09
2018-10-21T12:18:44.293Z,97958.16
2018-10-21T12:21:14.761Z,97954.48
2018-10-21T12:23:45.269Z,97960.77
2018-10-21T12:26:15.760Z,97956.63
2018-10-21T12:28:46.232Z,97960.70
2018-10-21T12:31:16.709Z,97963.11
2018-10-21T12:33:47.258Z,97964.84
2018-10-21T12:36:17.783Z,97964.91
2018-10-21T12:38:48.756Z,97966.63
2018-10-21T12:41:19.974Z,97961.01
2018-10-21T12:43:50.486Z,97965.19
2018-10-21T12:46:21.368Z,97963.34
2018-10-21T12:51:21.516Z,97974.16
2018-10-21T12:53:51.969Z,97973.30
2018-10-21T12:56:22.405Z,97970.77
2018-10-21T12:58:57.889Z,97961.41
2018-10-21T13:01:28.411Z,97962.15
2018-10-21T13:03:58.897Z,97960.84
2018-10-21T13:06:30.374Z,97966.70
2018-10-21T13:09:01.044Z,97961.89
2018-10-21T13:11:31.583Z,97961.46
2018-10-21T13:14:02.173Z,97975.66
2018-10-21T13:16:32.783Z,97972.15
2018-10-21T13:19:04.084Z,97976.88
2018-10-21T13:21:34.500Z,97980.11
2018-10-21T13:24:05.070Z,97986.47
2018-10-21T13:26:35.702Z,97977.76
2018-10-21T13:29:06.240Z,97984.00
2018-10-21T13:31:36.771Z,97985.12
2018-10-21T13:34:07.546Z,97982.07
2018-10-21T13:36:38.809Z,97979.14
2018-10-21T13:39:12.486Z,97977.92
2018-10-21T13:41:43.777Z,97977.09
2018-10-21T13:44:14.150Z,97979.38
2018-10-21T13:46:45.008Z,97978.34
2018-10-21T13:49:15.600Z,97977.54
2018-10-21T13:51:45.972Z,97975.46
2018-10-21T13:54:16.368Z,97974.70
2018-10-21T13:56:46.798Z,97971.12
2018-10-21T13:59:17.591Z,97988.37
2018-10-21T14:01:47.981Z,97991.51
2018-10-21T14:04:18.471Z,97987.99
2018-10-21T14:06:48.990Z,97987.39
2018-10-21T14:09:19.369Z,97987.95
2018-10-21T14:11:50.000Z,97992.05
2018-10-21T14:14:20.456Z,97993.48
2018-10-21T14:16:50.948Z,97990.02
2018-10-21T14:19:22.379Z,97988.45
2018-10-21T14:21:53.797Z,98001.36
2018-10-21T14:24:24.199Z,98000.52
2018-10-21T14:26:55.505Z,98001.86
2018-10-21T14:29:26.025Z,97999.53
2018-10-21T14:31:56.465Z,97999.80
2018-10-21T14:34:26.974Z,98003.17
2018-10-21T14:36:57.549Z,98006.98
2018-10-21T14:39:28.436Z,98004.08
2018-10-21T14:41:58.824Z,98009.89
2018-10-21T14:44:29.305Z,98007.55
2018-10-21T14:46:59.818Z,98015.34
2018-10-21T14:49:30.303Z,98013.09
2018-10-21T14:52:01.338Z,98023.30
2018-10-21T14:54:31.733Z,98022.92
2018-10-21T14:57:02.267Z,98021.99
2018-10-21T14:59:32.746Z,98024.94
2018-10-21T15:02:03.493Z,98022.91
2018-10-21T15:04:34.005Z,98026.70
2018-10-21T15:07:04.552Z,98024.33
2018-10-21T15:09:35.048Z,98027.78
2018-10-21T15:12:06.501Z,97979.93
2018-10-21T15:14:37.659Z,98031.78
2018-10-21T15:17:08.193Z,98032.72
2018-10-21T15:19:38.805Z,98030.70
2018-10-21T15:22:09.231Z,98031.64
2018-10-21T15:24:39.691Z,98040.31
2018-10-21T15:27:10.132Z,98043.27
2018-10-21T15:29:40.660Z,98044.69
2018-10-21T15:32:11.126Z,98051.44
2018-10-21T15:34:41.614Z,98056.89
2018-10-21T15:37:12.073Z,98054.79
2018-10-21T15:39:42.723Z,98058.91
2018-10-21T15:42:13.343Z,98060.80
2018-10-21T15:44:43.878Z,98066.73
2018-10-21T15:47:14.329Z,98070.87
2018-10-21T15:49:44.961Z,98073.69
2018-10-21T15:52:15.706Z,98074.13
2018-10-21T15:54:46.214Z,98077.81
2018-10-21T15:57:16.675Z,98082.19
2018-10-21T15:59:47.353Z,98081.81
2018-10-21T16:02:17.956Z,98087.39
2018-10-21T16:04:48.444Z,98090.33
2018-10-21T16:07:19.093Z,98089.64
2018-10-21T16:09:49.674Z,98099.53
2018-10-21T16:12:20.183Z,98101.11
2018-10-21T16:14:50.648Z,98108.83
2018-10-21T16:17:21.689Z,98110.73
2018-10-21T16:19:52.562Z,98107.75
2018-10-21T16:22:23.096Z,98112.38
2018-10-21T16:24:53.674Z,98114.88
2018-10-21T16:27:24.184Z,98125.30
2018-10-21T16:29:54.819Z,98125.81
2018-10-21T16:32:25.458Z,98123.88
2018-10-21T16:35:07.286Z,98122.70
2018-10-21T16:37:38.140Z,98131.55
2018-10-21T16:40:10.862Z,98132.70
2018-10-21T16:42:41.501Z,98134.73
2018-10-21T16:45:13.050Z,98140.18
2018-10-21T16:47:43.660Z,98142.00
2018-10-21T16:50:16.088Z,98145.08
2018-10-21T16:52:47.276Z,98143.16
2018-10-21T16:55:18.509Z,98146.13
2018-10-21T16:57:48.992Z,98151.02
2018-10-21T17:00:19.846Z,98148.70
2018-10-21T17:02:50.288Z,98134.88
2018-10-21T17:05:20.744Z,98150.49
2018-10-21T17:07:51.218Z,98151.08
2018-10-21T17:10:22.007Z,98153.91
2018-10-21T17:12:52.142Z,98153.27
2018-10-21T17:15:22.663Z,98155.63
2018-10-21T17:17:53.204Z,98155.59
2018-10-21T17:20:23.956Z,98156.05
2018-10-21T17:22:54.479Z,98155.97
2018-10-21T17:25:25.037Z,98162.97
2018-10-21T17:27:55.891Z,98155.86
2018-10-21T17:30:26.440Z,98156.44
2018-10-21T17:32:56.880Z,98157.73
2018-10-21T17:35:27.332Z,98149.64
2018-10-21T17:37:57.884Z,98149.00
2018-10-21T17:40:28.356Z,98147.23
2018-10-21T17:42:58.916Z,98144.33
2018-10-21T17:45:29.385Z,98141.89
2018-10-21T17:47:59.870Z,98138.56
2018-10-21T17:50:30.341Z,98143.53
2018-10-21T17:53:00.773Z,98137.84
2018-10-21T17:55:31.240Z,98149.95
2018-10-21T17:58:01.677Z,98148.27
2018-10-21T18:00:32.317Z,98149.30
2018-10-21T18:03:02.782Z,98154.75
2018-10-21T18:05:33.439Z,98154.05
2018-10-21T18:08:04.033Z,98158.44
2018-10-21T18:10:34.546Z,98151.27
2018-10-21T18:13:05.048Z,98168.30
2018-10-21T18:15:35.652Z,98168.46
2018-10-21T18:18:06.117Z,98163.95
2018-10-21T18:20:36.902Z,98169.90
2018-10-21T18:23:07.523Z,98169.55
2018-10-21T18:25:38.003Z,98169.58
2018-10-21T18:28:08.465Z,98173.52
2018-10-21T18:30:39.027Z,98166.57
2018-10-21T18:33:09.518Z,98175.22
2018-10-21T18:35:40.044Z,98180.69
2018-10-21T18:38:10.518Z,98180.12
2018-10-21T18:40:42.126Z,98175.58
2018-10-21T18:43:12.694Z,98172.54
2018-10-21T18:45:43.300Z,98179.16
2018-10-21T18:48:13.826Z,98183.44
2018-10-21T18:50:44.302Z,98182.95
2018-10-21T18:53:14.739Z,98186.50
2018-10-21T18:55:47.546Z,98189.03
2018-10-21T18:58:18.099Z,98191.06
2018-10-21T19:00:49.997Z,98195.58
2018-10-21T19:03:20.557Z,98190.78
2018-10-21T19:05:50.959Z,98194.28
2018-10-21T19:08:21.444Z,98191.58
2018-10-21T19:10:51.870Z,98189.33
2018-10-21T19:13:22.545Z,98194.58
2018-10-21T19:15:52.964Z,98197.72
2018-10-21T19:18:23.546Z,98203.82
2018-10-21T19:20:54.248Z,98208.48
2018-10-21T19:23:24.776Z,98215.53
2018-10-21T19:25:55.481Z,98216.44
2018-10-21T19:28:26.094Z,98218.47
2018-10-21T19:30:56.652Z,98211.80
2018-10-21T19:33:27.169Z,98216.50
2018-10-21T19:35:57.723Z,98219.19
2018-10-21T19:38:28.254Z,98221.86
2018-10-21T19:40:58.938Z,98222.53
2018-10-21T19:43:29.497Z,98221.34
2018-10-21T19:45:59.937Z,98223.31
2018-10-21T19:48:30.499Z,98228.84
2018-10-21T19:51:01.181Z,98230.80
2018-10-21T19:53:31.609Z,98235.89
2018-10-21T19:56:02.104Z,98228.56
2018-10-21T19:58:32.679Z,98233.13
2018-10-21T20:01:03.191Z,98232.73
2018-10-21T20:03:33.653Z,98230.08
2018-10-21T20:06:04.137Z,98233.58
2018-10-21T20:08:34.631Z,98226.75
2018-10-21T20:11:05.230Z,98229.45
2018-10-21T20:13:35.880Z,98235.65
2018-10-21T20:16:06.527Z,98230.29
2018-10-21T20:18:37.280Z,98225.77
2018-10-21T20:21:07.995Z,98225.94
2018-10-21T20:23:38.542Z,98229.83
2018-10-21T20:26:09.123Z,98233.16
2018-10-21T20:28:39.593Z,98238.45
2018-10-21T20:31:10.160Z,98241.97
2018-10-21T20:33:40.735Z,98242.06
2018-10-21T20:36:11.199Z,98240.66
2018-10-21T20:38:42.001Z,98236.14
2018-10-21T20:41:12.529Z,98248.36
2018-10-21T20:43:43.095Z,98246.67
2018-10-21T20:46:13.565Z,98254.38
2018-10-21T20:48:44.073Z,98246.02
2018-10-21T20:51:14.739Z,98258.52
2018-10-21T20:53:45.174Z,98249.09
2018-10-21T20:56:15.652Z,98249.38
2018-10-21T20:58:46.025Z,98247.13
2018-10-21T21:01:16.784Z,98245.31
2018-10-21T21:03:47.249Z,98242.81
2018-10-21T21:06:17.795Z,98241.77
2018-10-21T21:08:48.258Z,98243.35
2018-10-21T21:11:18.792Z,98237.61
2018-10-21T21:13:49.237Z,98243.70
2018-10-21T21:16:19.714Z,98247.33
2018-10-21T21:18:50.179Z,98242.38
2018-10-21T21:21:21.035Z,98237.75
2018-10-21T21:23:51.500Z,98238.75
2018-10-21T21:26:23.046Z,98237.44
2018-10-21T21:28:53.465Z,98238.83
2018-10-21T21:31:23.904Z,98238.83
2018-10-21T21:33:55.012Z,98241.23
2018-10-21T21:36:25.489Z,98242.98
2018-10-21T21:38:55.925Z,98241.78
2018-10-21T21:41:26.732Z,98240.85
2018-10-21T21:43:57.127Z,98247.67
2018-10-21T21:46:27.689Z,98243.44
2018-10-21T21:48:58.212Z,98245.64
2018-10-21T21:51:28.717Z,98246.94
2018-10-21T21:53:59.218Z,98247.48
2018-10-21T21:56:29.661Z,98252.30
2018-10-21T21:59:00.115Z,98250.98
2018-10-21T22:01:30.668Z,98254.86
2018-10-21T22:04:01.133Z,98252.44
2018-10-21T22:06:31.743Z,98250.69
2018-10-21T22:09:02.264Z,98249.59
2018-10-21T22:11:32.742Z,98246.74
2018-10-21T22:14:03.237Z,98246.91
2018-10-21T22:16:33.708Z,98240.05
2018-10-21T22:19:04.227Z,98245.97
2018-10-21T22:21:36.340Z,98239.14
2018-10-21T22:24:07.670Z,98245.97
2018-10-21T22:26:38.596Z,98236.91
2018-10-21T22:29:09.176Z,98242.89
2018-10-21T22:31:40.230Z,98238.81
2018-10-21T22:34:10.928Z,98233.90
2018-10-21T22:36:41.355Z,98241.34
2018-10-21T22:39:11.781Z,98239.37
2018-10-21T22:41:42.599Z,98243.51
2018-10-21T22:44:13.564Z,98243.05
2018-10-21T22:46:44.228Z,98237.59
2018-10-21T22:49:14.612Z,98241.30
2018-10-21T22:51:45.144Z,98238.69
2018-10-21T22:54:16.231Z,98240.72
2018-10-21T22:56:46.788Z,98242.81
2018-10-21T22:59:17.288Z,98238.48
2018-10-21T23:01:47.984Z,98245.44
2018-10-21T23:04:18.519Z,98246.44
2018-10-21T23:06:49.057Z,98244.20
2018-10-21T23:09:19.532Z,98238.20
2018-10-21T23:11:50.021Z,98237.74
2018-10-21T23:14:20.431Z,98241.88
2018-10-21T23:16:50.916Z,98241.97
2018-10-21T23:19:31.865Z,98244.72
2018-10-21T23:22:04.112Z,98246.25
2018-10-21T23:24:34.959Z,98232.97
2018-10-21T23:27:05.336Z,98243.95
2018-10-21T23:29:35.899Z,98234.56
2018-10-21T23:32:06.285Z,98234.67
2018-10-21T23:34:36.873Z,98234.42
2018-10-21T23:37:07.397Z,98241.37
2018-10-21T23:39:37.879Z,98229.94
2018-10-21T23:42:08.765Z,98235.72
2018-10-21T23:44:39.292Z,98242.37
2018-10-21T23:47:09.757Z,98248.44
2018-10-21T23:49:40.189Z,98246.11
2018-10-21T23:52:10.812Z,98244.25
2018-10-21T23:54:41.272Z,98246.75
2018-10-21T23:57:12.037Z,98256.98
2018-10-21T23:59:42.498Z,98256.17
